Terminal Aerodrome Forecast
Issued by NWS

Home | Current Version | Previous Version | Text Only | Print | Product List | Glossary On
Versions: 1 2 3 4 5 6 7 8 9 10 11 12 13 14 15 16 17 18 19 20 21 22 23 24 25 26 27 28 29 30 31 32
000
FTUS41 KBOX 070541
TAFFMH
TAF
KFMH 070541Z 0706/0806 25004KT P6SM SKC
     FM071000 00000KT P6SM SKC
     FM071500 25006KT P6SM SKC
     FM072000 21010KT P6SM SKC
     FM080100 21006KT P6SM SKC=

USA.gov is the U.S. government's official web portal to all federal, state and local government web resources and services.